Time;durP1;ratioP1;P1;durP2;ratioP2;P2;SDS_P1;SDS_P2;PMS_P1;PMS_P2;Temp;Humidity;BMP_temperature;BMP_pressure;BME280_temperature;BME280_humidity;BME280_pressure;Samples;Min_cycle;Max_cycle;Signal;HPM_P1;HPM_P2
2023/12/17 00:00:59;;;;;;;14.38;6.55;;;10.30;92.60;;;;;;5127937;27;20046;-78
2023/12/17 00:03:26;;;;;;;14.65;6.10;;;10.30;92.60;;;;;;5126091;27;20132;-78
2023/12/17 00:05:53;;;;;;;10.50;5.50;;;10.30;92.60;;;;;;5111965;27;20039;-78
2023/12/17 00:08:20;;;;;;;12.35;6.05;;;10.30;92.60;;;;;;5127610;27;20035;-78
2023/12/17 00:10:54;;;;;;;13.32;6.80;;;10.30;92.60;;;;;;5125365;27;20046;-78
2023/12/17 00:13:20;;;;;;;8.77;5.95;;;10.30;92.60;;;;;;5108637;27;20489;-78
2023/12/17 00:15:46;;;;;;;13.65;6.35;;;10.30;92.50;;;;;;5105798;27;20047;-78
2023/12/17 00:18:12;;;;;;;16.70;7.40;;;10.20;92.50;;;;;;5103816;27;20039;-78
2023/12/17 00:20:38;;;;;;;9.80;6.85;;;10.30;92.60;;;;;;5125518;27;20561;-78
2023/12/17 00:23:04;;;;;;;11.55;5.85;;;10.30;92.60;;;;;;5127159;27;20038;-78
2023/12/17 00:25:33;;;;;;;10.18;6.18;;;10.30;92.50;;;;;;5121221;27;20047;-78
2023/12/17 00:27:58;;;;;;;16.42;6.05;;;10.60;92.60;;;;;;5124698;27;20035;-78
2023/12/17 00:30:24;;;;;;;11.23;5.88;;;10.30;92.50;;;;;;5108857;27;20034;-78
2023/12/17 00:32:50;;;;;;;15.93;6.53;;;10.20;92.50;;;;;;5107381;27;20546;-78
2023/12/17 00:35:16;;;;;;;10.20;6.07;;;10.30;92.50;;;;;;5105337;27;20039;-78
2023/12/17 00:37:41;;;;;;;11.93;6.78;;;10.30;92.50;;;;;;5088891;28;20058;-78
2023/12/17 00:40:08;;;;;;;12.75;5.95;;;10.30;92.50;;;;;;5091451;27;20420;-78
2023/12/17 00:42:33;;;;;;;14.57;6.40;;;10.30;92.50;;;;;;5104198;28;20047;-78
2023/12/17 00:44:59;;;;;;;13.30;5.47;;;10.30;92.50;;;;;;5124371;27;20402;-78
2023/12/17 00:47:25;;;;;;;11.40;6.05;;;10.20;92.50;;;;;;5123666;27;20206;-78
2023/12/17 00:49:52;;;;;;;14.82;6.35;;;10.20;92.50;;;;;;5126654;27;20524;-78
2023/12/17 00:52:19;;;;;;;15.07;5.80;;;10.20;92.50;;;;;;5124863;28;20035;-78
2023/12/17 00:54:45;;;;;;;11.23;5.35;;;10.20;92.50;;;;;;5103010;28;20086;-78
2023/12/17 00:57:11;;;;;;;12.57;5.65;;;10.20;92.50;;;;;;5106283;28;20078;-78
2023/12/17 00:59:36;;;;;;;13.18;6.07;;;10.20;92.50;;;;;;5107293;28;20046;-78
2023/12/17 01:02:02;;;;;;;11.15;5.55;;;10.20;92.50;;;;;;5125045;28;20045;-78
2023/12/17 01:04:27;;;;;;;13.60;5.90;;;10.20;92.50;;;;;;5124940;28;20024;-78
2023/12/17 01:06:53;;;;;;;16.67;6.30;;;10.20;92.50;;;;;;5124851;28;20435;-78
2023/12/17 01:09:19;;;;;;;14.07;5.65;;;10.30;92.50;;;;;;5106851;28;20036;-78
2023/12/17 01:11:44;;;;;;;12.40;6.00;;;10.30;92.70;;;;;;5103309;28;20035;-78
2023/12/17 01:14:10;;;;;;;11.90;5.72;;;10.20;92.50;;;;;;5107010;28;20031;-78
2023/12/17 01:16:35;;;;;;;13.63;6.35;;;10.30;92.50;;;;;;5124714;28;20062;-78
2023/12/17 01:19:01;;;;;;;16.95;6.00;;;10.30;92.50;;;;;;5107775;28;20039;-78
2023/12/17 01:21:27;;;;;;;12.20;6.10;;;10.20;92.50;;;;;;5105975;28;20036;-78
2023/12/17 01:23:53;;;;;;;20.60;6.50;;;10.20;92.50;;;;;;5121950;28;20031;-78
2023/12/17 01:26:20;;;;;;;14.45;6.78;;;10.30;92.60;;;;;;5105837;28;20035;-78
2023/12/17 01:28:46;;;;;;;18.75;6.32;;;10.30;92.60;;;;;;5124182;28;20054;-78
2023/12/17 01:31:12;;;;;;;14.18;6.28;;;10.30;92.60;;;;;;5103963;28;20120;-78
2023/12/17 01:33:38;;;;;;;10.13;5.50;;;10.30;92.60;;;;;;5124764;28;20127;-78
2023/12/17 01:36:03;;;;;;;11.80;5.93;;;10.30;92.60;;;;;;5121809;28;20036;-78
2023/12/17 01:38:29;;;;;;;12.10;6.18;;;10.30;92.60;;;;;;5101180;28;20093;-78
2023/12/17 01:40:54;;;;;;;13.45;5.60;;;10.30;92.60;;;;;;5121802;28;20564;-78
2023/12/17 01:43:20;;;;;;;15.45;6.03;;;10.30;92.60;;;;;;5128430;28;20081;-78
2023/12/17 01:45:46;;;;;;;12.15;6.03;;;10.30;92.60;;;;;;5129559;28;20039;-78
2023/12/17 01:48:12;;;;;;;11.63;6.05;;;10.30;92.70;;;;;;5103556;28;20035;-78
2023/12/17 01:50:38;;;;;;;14.70;6.43;;;10.30;92.60;;;;;;5124037;28;20554;-78
2023/12/17 01:53:04;;;;;;;12.20;5.90;;;10.30;92.60;;;;;;5122664;28;20043;-78
2023/12/17 01:55:30;;;;;;;13.02;6.38;;;10.30;92.60;;;;;;5123838;28;20031;-78
2023/12/17 01:57:57;;;;;;;12.48;6.45;;;10.30;92.60;;;;;;5103324;28;20040;-78
2023/12/17 02:00:24;;;;;;;11.35;5.88;;;10.30;92.60;;;;;;5107554;28;20042;-78
2023/12/17 02:02:50;;;;;;;15.52;6.30;;;10.30;92.60;;;;;;5122299;28;20039;-78
2023/12/17 02:05:16;;;;;;;15.00;6.40;;;10.30;92.60;;;;;;5103259;28;20035;-78
2023/12/17 02:07:42;;;;;;;13.63;6.65;;;10.30;92.60;;;;;;5105227;27;20044;-78
2023/12/17 02:10:08;;;;;;;13.50;5.97;;;10.30;92.60;;;;;;5108574;27;20039;-78
2023/12/17 02:12:34;;;;;;;14.38;6.20;;;10.30;92.60;;;;;;5109005;27;20081;-78
2023/12/17 02:14:59;;;;;;;13.90;6.70;;;10.30;92.60;;;;;;5108313;27;20078;-78
2023/12/17 02:17:30;;;;;;;10.35;5.95;;;10.30;92.60;;;;;;5125460;27;20032;-78
2023/12/17 02:19:56;;;;;;;12.23;6.30;;;10.30;92.60;;;;;;5127594;27;20032;-78
2023/12/17 02:22:23;;;;;;;13.32;6.70;;;10.30;92.60;;;;;;5107428;27;20095;-78
2023/12/17 02:24:50;;;;;;;13.25;6.55;;;10.30;92.60;;;;;;5127900;27;20039;-77
2023/12/17 02:27:23;;;;;;;18.00;7.03;;;10.30;92.60;;;;;;5128389;27;20031;-77
2023/12/17 02:29:49;;;;;;;15.88;6.93;;;10.30;92.60;;;;;;5129679;27;20034;-78
2023/12/17 02:32:15;;;;;;;10.57;6.63;;;10.30;92.60;;;;;;5126965;27;20041;-78
2023/12/17 02:34:41;;;;;;;15.23;6.60;;;10.30;92.60;;;;;;5128998;27;20041;-78
2023/12/17 02:37:07;;;;;;;13.88;6.15;;;10.30;92.60;;;;;;5104950;28;20043;-78
2023/12/17 02:39:33;;;;;;;13.38;6.20;;;10.40;92.60;;;;;;5110481;27;20108;-78
2023/12/17 02:41:58;;;;;;;10.52;6.65;;;10.40;92.60;;;;;;5129768;27;20079;-78
2023/12/17 02:44:24;;;;;;;12.35;5.88;;;10.40;92.50;;;;;;5128991;27;20035;-78
2023/12/17 02:46:51;;;;;;;14.38;6.70;;;10.40;92.50;;;;;;5126580;27;20032;-78
2023/12/17 02:49:17;;;;;;;11.75;6.68;;;10.40;92.60;;;;;;5127151;27;20067;-78
2023/12/17 02:51:42;;;;;;;16.05;7.32;;;10.40;92.50;;;;;;5126201;27;20066;-78
2023/12/17 02:54:08;;;;;;;12.55;6.20;;;10.40;92.50;;;;;;5127978;27;20031;-78
2023/12/17 02:56:41;;;;;;;16.00;6.43;;;10.40;92.50;;;;;;5107181;27;20043;-78
2023/12/17 02:59:11;;;;;;;13.38;6.60;;;10.40;92.50;;;;;;5108954;27;20047;-78
2023/12/17 03:01:37;;;;;;;13.02;6.20;;;10.40;92.50;;;;;;5112062;27;20035;-78
2023/12/17 03:04:04;;;;;;;14.00;6.15;;;10.40;92.50;;;;;;5110362;27;20494;-78
2023/12/17 03:06:29;;;;;;;12.68;6.70;;;10.40;92.40;;;;;;5089312;27;20038;-78
2023/12/17 03:08:55;;;;;;;10.25;5.68;;;10.40;92.40;;;;;;5088522;28;20036;-78
2023/12/17 03:11:21;;;;;;;10.02;5.53;;;10.40;92.40;;;;;;5108165;27;20031;-78
2023/12/17 03:13:46;;;;;;;14.55;6.38;;;10.40;92.40;;;;;;5109410;28;20042;-78
2023/12/17 03:16:12;;;;;;;9.93;5.90;;;10.40;92.40;;;;;;5091606;27;20039;-78
2023/12/17 03:18:38;;;;;;;11.88;5.88;;;10.40;92.40;;;;;;5107767;27;20032;-78
2023/12/17 03:21:05;;;;;;;14.10;6.70;;;10.40;92.40;;;;;;5089775;27;20550;-78
2023/12/17 03:23:31;;;;;;;10.82;6.38;;;10.40;92.30;;;;;;5106630;27;20406;-78
2023/12/17 03:25:57;;;;;;;13.95;6.03;;;10.40;92.30;;;;;;5107177;27;20048;-78
2023/12/17 03:28:22;;;;;;;12.68;6.38;;;10.40;92.30;;;;;;5108308;27;20042;-78
2023/12/17 03:30:48;;;;;;;12.13;6.18;;;10.40;92.30;;;;;;5106424;27;20058;-78
2023/12/17 03:33:14;;;;;;;13.65;6.40;;;10.40;92.30;;;;;;5110386;27;20043;-78
2023/12/17 03:35:39;;;;;;;13.77;6.47;;;10.40;92.30;;;;;;5126175;27;20065;-78
2023/12/17 03:38:06;;;;;;;13.55;6.57;;;10.40;92.20;;;;;;5122530;27;20102;-78
2023/12/17 03:40:32;;;;;;;13.70;5.63;;;10.40;92.20;;;;;;5128099;27;20038;-78
2023/12/17 03:42:58;;;;;;;10.88;5.78;;;10.40;92.20;;;;;;5122847;27;20032;-78
2023/12/17 03:45:23;;;;;;;9.00;5.45;;;10.40;92.20;;;;;;5110586;27;20087;-78
2023/12/17 03:47:49;;;;;;;12.75;6.03;;;10.40;92.10;;;;;;5122673;27;20040;-78
2023/12/17 03:50:16;;;;;;;10.20;5.93;;;10.40;92.10;;;;;;5124474;27;20035;-78
2023/12/17 03:52:41;;;;;;;9.85;6.10;;;10.40;92.10;;;;;;5126788;27;20039;-78
2023/12/17 03:55:07;;;;;;;12.82;5.50;;;10.40;92.10;;;;;;5092821;27;20443;-78
2023/12/17 03:57:33;;;;;;;11.75;6.28;;;10.30;92.00;;;;;;5128561;27;20031;-78
2023/12/17 03:59:58;;;;;;;10.85;6.05;;;10.40;92.00;;;;;;5103774;28;20505;-78
2023/12/17 04:02:25;;;;;;;8.88;5.13;;;10.40;92.00;;;;;;5108949;28;20042;-78
2023/12/17 04:04:50;;;;;;;12.32;6.13;;;10.40;91.90;;;;;;5110075;27;20054;-78
2023/12/17 04:07:16;;;;;;;9.13;5.40;;;10.30;91.90;;;;;;5106792;27;20036;-78
2023/12/17 04:09:41;;;;;;;11.00;5.50;;;10.40;91.90;;;;;;5127356;27;20118;-78
2023/12/17 04:12:07;;;;;;;9.90;5.65;;;10.40;91.90;;;;;;5106594;27;20406;-78
2023/12/17 04:14:33;;;;;;;12.48;5.85;;;10.40;91.90;;;;;;5129027;27;20126;-78
2023/12/17 04:16:58;;;;;;;11.50;6.80;;;10.40;92.00;;;;;;5108555;28;20039;-78
2023/12/17 04:19:24;;;;;;;11.05;6.18;;;10.40;91.80;;;;;;5107736;27;20058;-77
2023/12/17 04:21:49;;;;;;;12.88;6.63;;;10.30;91.80;;;;;;5127913;27;20059;-77
2023/12/17 04:24:15;;;;;;;10.15;6.63;;;10.40;91.80;;;;;;5128662;27;20039;-77
2023/12/17 04:26:41;;;;;;;10.05;5.88;;;10.40;91.80;;;;;;5085660;27;20081;-78
2023/12/17 04:29:06;;;;;;;8.57;5.28;;;10.40;91.80;;;;;;5124992;27;20027;-78
2023/12/17 04:31:32;;;;;;;11.68;6.30;;;10.30;91.70;;;;;;5099300;28;20081;-78
2023/12/17 04:33:57;;;;;;;8.85;5.85;;;10.40;91.70;;;;;;5124319;27;20031;-78
2023/12/17 04:36:24;;;;;;;8.75;5.30;;;10.30;91.60;;;;;;5105835;27;20059;-78
2023/12/17 04:38:50;;;;;;;13.55;5.35;;;10.30;91.60;;;;;;5126354;27;20031;-78
2023/12/17 04:41:16;;;;;;;9.48;5.13;;;10.30;91.60;;;;;;5124138;27;20546;-78
2023/12/17 04:43:42;;;;;;;11.05;5.10;;;10.30;91.60;;;;;;5126863;27;20034;-78
2023/12/17 04:46:07;;;;;;;10.00;6.35;;;10.30;91.60;;;;;;5107595;27;20044;-77
2023/12/17 04:48:33;;;;;;;11.48;5.53;;;10.30;91.50;;;;;;5124953;27;20398;-78
2023/12/17 04:50:59;;;;;;;11.63;5.65;;;10.30;91.50;;;;;;5109306;27;20066;-78
2023/12/17 04:53:24;;;;;;;9.63;6.22;;;10.30;91.50;;;;;;5123854;27;20039;-78
2023/12/17 04:55:50;;;;;;;10.57;5.80;;;10.30;91.50;;;;;;5104555;28;20035;-77
2023/12/17 04:58:15;;;;;;;11.27;6.60;;;10.30;91.50;;;;;;5125805;28;20445;-77
2023/12/17 05:00:41;;;;;;;14.65;6.57;;;10.30;91.50;;;;;;5125301;28;20494;-77
2023/12/17 05:03:07;;;;;;;10.20;5.88;;;10.30;91.50;;;;;;5124900;28;20027;-77
2023/12/17 05:05:32;;;;;;;9.95;5.50;;;10.30;91.40;;;;;;5106723;28;20039;-77
2023/12/17 05:07:58;;;;;;;11.02;5.88;;;10.30;91.40;;;;;;5104609;28;20401;-77
2023/12/17 05:10:24;;;;;;;8.02;5.38;;;10.30;91.40;;;;;;5108435;28;20031;-77
2023/12/17 05:12:50;;;;;;;10.32;5.00;;;10.30;91.40;;;;;;5126690;28;20047;-77
2023/12/17 05:15:15;;;;;;;10.23;4.88;;;10.20;91.30;;;;;;5109437;28;20042;-77
2023/12/17 05:17:41;;;;;;;9.45;4.43;;;10.20;91.30;;;;;;5125842;28;20027;-77
2023/12/17 05:20:09;;;;;;;10.45;4.85;;;10.20;91.20;;;;;;5124988;28;20485;-77
2023/12/17 05:22:34;;;;;;;9.57;4.45;;;10.20;91.20;;;;;;5124557;28;20040;-77
2023/12/17 05:25:00;;;;;;;12.77;4.20;;;10.20;91.20;;;;;;5104087;28;20090;-78
2023/12/17 05:27:26;;;;;;;8.70;4.72;;;10.20;91.20;;;;;;5127399;28;20541;-78
2023/12/17 05:29:52;;;;;;;6.35;4.10;;;10.20;91.20;;;;;;5123942;28;20126;-78
2023/12/17 05:32:17;;;;;;;9.48;4.45;;;10.20;91.10;;;;;;5125128;28;20057;-78
2023/12/17 05:34:43;;;;;;;7.53;4.18;;;10.20;91.00;;;;;;5106461;28;20067;-78
2023/12/17 05:37:08;;;;;;;9.00;4.13;;;10.20;91.00;;;;;;5099793;28;20428;-78
2023/12/17 05:39:34;;;;;;;9.52;4.55;;;10.20;91.00;;;;;;5083136;28;20055;-78
2023/12/17 05:41:59;;;;;;;10.05;4.38;;;10.20;91.00;;;;;;5085697;28;20567;-78
2023/12/17 05:44:25;;;;;;;8.82;4.00;;;10.20;90.90;;;;;;5090115;28;20039;-78
2023/12/17 05:46:51;;;;;;;7.72;3.70;;;10.20;90.90;;;;;;5106492;28;20031;-78
2023/12/17 05:49:16;;;;;;;7.82;3.88;;;10.20;90.90;;;;;;5106283;28;20378;-78
2023/12/17 05:51:45;;;;;;;8.38;3.70;;;10.20;90.90;;;;;;5106178;28;20083;-78
2023/12/17 05:54:11;;;;;;;11.40;4.50;;;10.20;91.00;;;;;;5103102;28;20067;-78
2023/12/17 05:56:43;;;;;;;5.63;3.55;;;10.10;90.90;;;;;;5106353;28;20035;-78
2023/12/17 05:59:09;;;;;;;8.77;3.22;;;10.20;90.90;;;;;;5108374;28;20371;-78
2023/12/17 06:01:35;;;;;;;7.65;3.40;;;10.10;90.90;;;;;;5106646;28;20035;-77
2023/12/17 06:04:01;;;;;;;5.68;3.72;;;10.20;91.10;;;;;;5109515;28;20550;-77
2023/12/17 06:06:26;;;;;;;7.25;3.78;;;10.10;90.90;;;;;;5104226;28;20032;-77
2023/12/17 06:08:52;;;;;;;5.28;2.97;;;10.10;90.90;;;;;;5107781;28;20062;-77
2023/12/17 06:11:18;;;;;;;12.57;3.83;;;10.10;90.90;;;;;;5107137;28;20410;-77
2023/12/17 06:13:45;;;;;;;7.43;3.13;;;10.20;90.90;;;;;;5104823;28;20047;-78
2023/12/17 06:16:11;;;;;;;12.85;4.13;;;10.10;90.90;;;;;;5108676;28;20066;-78
2023/12/17 06:18:38;;;;;;;6.07;3.30;;;10.10;90.90;;;;;;5106548;28;20042;-78
2023/12/17 06:21:04;;;;;;;7.35;3.72;;;10.10;91.00;;;;;;5106641;28;20529;-78
2023/12/17 06:23:31;;;;;;;8.30;3.63;;;10.10;90.90;;;;;;5110939;28;20046;-78
2023/12/17 06:25:56;;;;;;;11.98;4.82;;;10.10;90.90;;;;;;5106837;28;20487;-78
2023/12/17 06:28:24;;;;;;;10.60;4.78;;;10.10;90.90;;;;;;5107845;28;20044;-77
2023/12/17 06:30:49;;;;;;;8.43;4.80;;;10.10;90.90;;;;;;5103170;28;20055;-78
2023/12/17 06:33:15;;;;;;;10.48;4.60;;;10.10;90.90;;;;;;5109201;28;20027;-78
2023/12/17 06:35:40;;;;;;;11.38;5.68;;;10.10;90.90;;;;;;5107681;28;20047;-78
2023/12/17 06:38:06;;;;;;;9.48;5.07;;;10.10;90.90;;;;;;5105115;28;20048;-78
2023/12/17 06:40:32;;;;;;;10.10;5.43;;;10.10;90.90;;;;;;5106063;28;20480;-78
2023/12/17 06:42:57;;;;;;;10.95;5.40;;;10.10;90.90;;;;;;5110812;28;20036;-78
2023/12/17 06:45:23;;;;;;;11.77;5.75;;;10.10;90.90;;;;;;5105682;28;20074;-78
2023/12/17 06:47:49;;;;;;;12.02;6.00;;;10.10;90.90;;;;;;5106817;28;20440;-78
2023/12/17 06:50:16;;;;;;;12.32;6.00;;;10.10;90.90;;;;;;5106500;28;20036;-78
2023/12/17 06:52:41;;;;;;;9.70;5.63;;;10.10;90.90;;;;;;5108753;28;20036;-78
2023/12/17 06:55:08;;;;;;;7.75;5.75;;;10.10;90.90;;;;;;5102265;28;20036;-78
2023/12/17 06:57:33;;;;;;;11.95;6.30;;;10.00;90.80;;;;;;5105319;28;20035;-78
2023/12/17 06:59:59;;;;;;;10.02;5.70;;;10.10;90.90;;;;;;5105445;28;20040;-78
2023/12/17 07:02:25;;;;;;;13.10;6.18;;;10.10;90.90;;;;;;5105395;28;20036;-78
2023/12/17 07:04:50;;;;;;;10.55;6.85;;;10.10;90.80;;;;;;5103517;28;20122;-78
2023/12/17 07:07:16;;;;;;;12.77;5.53;;;10.10;90.80;;;;;;5104877;28;20505;-78
2023/12/17 07:09:41;;;;;;;11.93;5.60;;;10.00;90.80;;;;;;5109388;28;20113;-78
2023/12/17 07:12:08;;;;;;;16.80;6.60;;;10.10;90.80;;;;;;5104648;28;20075;-77
2023/12/17 07:14:34;;;;;;;10.30;5.85;;;10.00;90.70;;;;;;5104936;28;20032;-77
2023/12/17 07:17:00;;;;;;;10.75;6.28;;;10.10;90.70;;;;;;5109869;28;20036;-77
2023/12/17 07:19:25;;;;;;;14.75;6.95;;;10.00;90.70;;;;;;5105715;28;20027;-78
2023/12/17 07:21:51;;;;;;;12.52;6.70;;;10.00;90.70;;;;;;5107918;28;20039;-78
2023/12/17 07:24:17;;;;;;;11.55;8.10;;;10.00;90.70;;;;;;5110041;28;20027;-78
2023/12/17 07:26:42;;;;;;;15.02;9.23;;;10.00;90.70;;;;;;5101394;28;20047;-78
2023/12/17 07:29:08;;;;;;;13.65;9.23;;;10.00;90.70;;;;;;5103707;28;20051;-77
2023/12/17 07:31:34;;;;;;;21.85;10.55;;;10.00;90.70;;;;;;5107195;28;20036;-78
2023/12/17 07:33:59;;;;;;;17.25;10.77;;;10.00;90.70;;;;;;5103625;28;20092;-78
2023/12/17 07:36:25;;;;;;;16.42;10.07;;;10.00;90.70;;;;;;5106855;27;20078;-78
2023/12/17 07:38:50;;;;;;;16.35;9.43;;;10.00;90.70;;;;;;5109438;27;20078;-78
2023/12/17 07:41:16;;;;;;;16.88;9.93;;;10.00;90.70;;;;;;5105203;28;20036;-78
2023/12/17 07:43:42;;;;;;;11.73;8.40;;;10.00;90.70;;;;;;5125888;27;20806;-78
2023/12/17 07:46:08;;;;;;;13.90;8.43;;;10.00;90.70;;;;;;5106317;27;20099;-78
2023/12/17 07:48:34;;;;;;;13.38;8.07;;;10.00;90.70;;;;;;5126705;27;20035;-78
2023/12/17 07:51:01;;;;;;;17.15;8.93;;;10.00;90.70;;;;;;5123703;27;20039;-78
2023/12/17 07:53:27;;;;;;;15.48;8.68;;;10.00;90.70;;;;;;5121982;27;20054;-78
2023/12/17 07:55:57;;;;;;;15.50;8.32;;;10.00;90.70;;;;;;5125626;27;20494;-78
2023/12/17 07:58:24;;;;;;;13.07;7.25;;;10.00;90.70;;;;;;5103911;28;20513;-78
2023/12/17 08:00:50;;;;;;;15.75;7.35;;;10.00;90.70;;;;;;5129232;27;20042;-78
2023/12/17 08:03:15;;;;;;;14.32;6.95;;;10.00;90.70;;;;;;5122159;27;20041;-78
2023/12/17 08:05:41;;;;;;;13.73;6.55;;;10.00;90.70;;;;;;5110284;27;20120;-78
2023/12/17 08:08:06;;;;;;;15.65;7.28;;;10.00;90.70;;;;;;5107818;27;20042;-78
2023/12/17 08:10:32;;;;;;;13.93;7.43;;;10.00;90.70;;;;;;5122922;27;20057;-77
2023/12/17 08:12:57;;;;;;;15.07;7.10;;;9.90;90.70;;;;;;5108961;28;20402;-79
2023/12/17 08:15:23;;;;;;;13.88;6.82;;;10.00;90.80;;;;;;5094430;27;20039;-78
2023/12/17 08:17:48;;;;;;;16.50;7.18;;;9.90;90.80;;;;;;5122942;27;20044;-78
2023/12/17 08:20:14;;;;;;;12.48;6.68;;;9.90;90.80;;;;;;5107822;27;20501;-78
2023/12/17 08:22:40;;;;;;;14.93;7.22;;;9.90;90.80;;;;;;5130656;27;20463;-78
2023/12/17 08:25:05;;;;;;;16.60;8.30;;;10.00;90.90;;;;;;5123187;27;20035;-78
2023/12/17 08:27:31;;;;;;;14.88;9.30;;;9.90;90.90;;;;;;5125003;27;20038;-78
2023/12/17 08:29:57;;;;;;;18.35;8.20;;;9.90;90.90;;;;;;5107029;27;20114;-78
2023/12/17 08:32:23;;;;;;;15.23;8.32;;;10.00;91.00;;;;;;5121914;27;20076;-78
2023/12/17 08:34:48;;;;;;;16.70;8.38;;;10.00;91.10;;;;;;5108627;27;20116;-77
2023/12/17 08:37:14;;;;;;;19.90;10.70;;;10.00;91.10;;;;;;5106621;27;20200;-78
2023/12/17 08:39:40;;;;;;;19.75;10.60;;;10.00;91.10;;;;;;5105972;28;20039;-78
2023/12/17 08:42:05;;;;;;;20.00;10.10;;;10.00;91.20;;;;;;5124795;27;20041;-78
2023/12/17 08:44:31;;;;;;;21.05;10.07;;;10.00;91.20;;;;;;5107090;28;20037;-78
2023/12/17 08:46:56;;;;;;;20.23;11.07;;;10.00;91.30;;;;;;5105581;27;20074;-78
2023/12/17 08:49:22;;;;;;;19.45;11.52;;;10.00;91.30;;;;;;5104047;28;20031;-77
2023/12/17 08:51:47;;;;;;;22.95;12.02;;;10.00;91.30;;;;;;5112744;27;20035;-77
2023/12/17 08:54:13;;;;;;;22.55;12.82;;;10.00;91.40;;;;;;5124082;27;20035;-77
2023/12/17 08:56:39;;;;;;;20.63;11.88;;;10.00;91.40;;;;;;5104129;28;20042;-78
2023/12/17 08:59:05;;;;;;;21.00;12.93;;;10.00;91.40;;;;;;5106480;28;20054;-78
2023/12/17 09:01:30;;;;;;;17.30;12.38;;;10.00;91.40;;;;;;5112578;28;20039;-78
2023/12/17 09:03:56;;;;;;;18.77;12.55;;;10.00;91.40;;;;;;5114499;28;20035;-78
2023/12/17 09:06:22;;;;;;;22.02;12.75;;;10.00;91.40;;;;;;5109815;28;20074;-78
2023/12/17 09:08:47;;;;;;;18.88;11.48;;;10.10;91.50;;;;;;5108364;28;20054;-78
2023/12/17 09:11:13;;;;;;;16.90;10.57;;;10.10;91.40;;;;;;5110711;28;20042;-78
2023/12/17 09:13:39;;;;;;;22.13;11.75;;;10.10;91.40;;;;;;5109654;28;20605;-78
2023/12/17 09:16:05;;;;;;;18.13;11.52;;;10.10;91.40;;;;;;5111195;27;20057;-78
2023/12/17 09:18:31;;;;;;;19.92;12.95;;;10.10;91.40;;;;;;5134283;27;20039;-78
2023/12/17 09:20:57;;;;;;;19.35;12.20;;;10.10;91.40;;;;;;5127340;27;20035;-78
2023/12/17 09:23:22;;;;;;;24.13;13.43;;;10.10;91.40;;;;;;5135521;27;20035;-78
2023/12/17 09:25:48;;;;;;;20.52;13.35;;;10.10;91.30;;;;;;5116512;27;20035;-78
2023/12/17 09:28:14;;;;;;;18.02;11.75;;;10.10;91.30;;;;;;5116150;27;20045;-78
2023/12/17 09:30:39;;;;;;;27.08;13.48;;;10.10;91.30;;;;;;5117371;27;20088;-78
2023/12/17 09:33:05;;;;;;;20.98;12.75;;;10.10;91.30;;;;;;5136052;27;20039;-79
2023/12/17 09:35:31;;;;;;;20.77;12.70;;;10.10;91.20;;;;;;5111549;27;20031;-78
2023/12/17 09:37:58;;;;;;;18.52;13.57;;;10.10;91.20;;;;;;5135102;27;20122;-78
2023/12/17 09:40:24;;;;;;;20.48;15.10;;;10.10;91.20;;;;;;5134077;27;20171;-77
2023/12/17 09:42:52;;;;;;;27.13;16.42;;;10.10;91.20;;;;;;5131532;27;20043;-78
2023/12/17 09:45:18;;;;;;;26.90;17.23;;;10.20;91.20;;;;;;5113846;27;20550;-77
2023/12/17 09:47:44;;;;;;;27.73;18.25;;;10.20;91.20;;;;;;5127730;27;20075;-77
2023/12/17 09:50:10;;;;;;;25.63;17.98;;;10.20;91.20;;;;;;5130653;27;20031;-78
2023/12/17 09:52:41;;;;;;;32.08;19.10;;;10.20;91.10;;;;;;5110694;27;20062;-77
2023/12/17 09:55:06;;;;;;;30.13;17.35;;;10.20;91.10;;;;;;5113191;27;20514;-77
2023/12/17 09:57:32;;;;;;;28.95;18.58;;;10.20;91.10;;;;;;5110200;27;20081;-78
2023/12/17 09:59:58;;;;;;;33.58;19.50;;;10.20;91.10;;;;;;5129781;27;20027;-78
2023/12/17 10:02:23;;;;;;;31.33;20.20;;;10.20;91.10;;;;;;5116749;27;20097;-78
2023/12/17 10:04:49;;;;;;;32.22;19.77;;;10.20;91.10;;;;;;5113580;27;20035;-78
2023/12/17 10:07:14;;;;;;;25.27;17.85;;;10.20;91.10;;;;;;5110727;27;20031;-78
2023/12/17 10:09:40;;;;;;;28.73;19.25;;;10.20;91.10;;;;;;5110061;27;20509;-78
2023/12/17 10:12:06;;;;;;;28.33;18.27;;;10.20;91.10;;;;;;5128297;27;20035;-78
2023/12/17 10:14:32;;;;;;;27.30;18.60;;;10.20;91.00;;;;;;5110657;27;20027;-79
2023/12/17 10:16:58;;;;;;;30.45;18.67;;;10.20;91.00;;;;;;5110802;27;20499;-78
2023/12/17 10:19:24;;;;;;;26.15;17.42;;;10.20;91.00;;;;;;5109098;28;20043;-78
2023/12/17 10:21:50;;;;;;;27.50;17.45;;;10.30;91.00;;;;;;5130774;27;20108;-79
2023/12/17 10:24:18;;;;;;;27.35;17.15;;;10.20;91.00;;;;;;5109526;27;20039;-79
2023/12/17 10:26:48;;;;;;;25.30;16.88;;;10.30;91.00;;;;;;5128382;27;20091;-78
2023/12/17 10:29:21;;;;;;;26.25;17.13;;;10.30;91.00;;;;;;5130814;27;20050;-78
2023/12/17 10:31:46;;;;;;;22.25;15.90;;;10.20;90.90;;;;;;5109299;27;20047;-78
2023/12/17 10:34:20;;;;;;;21.38;14.68;;;10.20;90.90;;;;;;5128425;27;20031;-78
2023/12/17 10:36:50;;;;;;;23.97;14.73;;;10.20;90.80;;;;;;5105439;27;20494;-78
2023/12/17 10:39:20;;;;;;;18.35;13.43;;;10.20;90.80;;;;;;5092063;27;20040;-77
2023/12/17 10:41:51;;;;;;;18.67;14.45;;;10.20;90.80;;;;;;5112612;27;20066;-78
2023/12/17 10:44:19;;;;;;;22.02;14.23;;;10.20;90.80;;;;;;5110230;27;20399;-79
2023/12/17 10:46:45;;;;;;;19.38;13.07;;;10.20;90.90;;;;;;5109697;27;20101;-78
2023/12/17 10:49:15;;;;;;;16.95;12.57;;;10.20;90.80;;;;;;5111398;27;20146;-79
2023/12/17 10:51:43;;;;;;;17.02;12.80;;;10.20;90.70;;;;;;5097418;27;20035;-79
2023/12/17 10:54:12;;;;;;;20.88;13.32;;;10.20;90.70;;;;;;5110784;27;20074;-79
2023/12/17 10:56:45;;;;;;;21.40;13.63;;;10.20;90.70;;;;;;5116233;27;20138;-79
2023/12/17 10:59:14;;;;;;;16.75;11.95;;;10.20;90.70;;;;;;5109720;27;20039;-78
2023/12/17 11:01:42;;;;;;;20.23;11.32;;;10.20;90.60;;;;;;5126901;27;20047;-78
2023/12/17 11:04:08;;;;;;;18.75;13.05;;;10.20;90.80;;;;;;5107967;27;20480;-78
2023/12/17 11:06:34;;;;;;;16.52;12.60;;;10.20;90.50;;;;;;5110173;27;20130;-78
2023/12/17 11:09:00;;;;;;;17.38;11.88;;;10.30;90.60;;;;;;5111974;27;20039;-78
2023/12/17 11:11:26;;;;;;;16.50;11.27;;;10.20;90.60;;;;;;5127968;27;20505;-78
2023/12/17 11:13:53;;;;;;;15.15;11.75;;;10.20;90.60;;;;;;5110129;27;20675;-78
2023/12/17 11:16:26;;;;;;;17.45;12.20;;;10.20;90.60;;;;;;5108324;27;20490;-78
2023/12/17 11:18:52;;;;;;;18.52;11.93;;;10.30;90.70;;;;;;5133584;27;20489;-78
2023/12/17 11:21:18;;;;;;;15.13;11.80;;;10.30;90.70;;;;;;5113497;27;20123;-79
2023/12/17 11:23:49;;;;;;;20.55;13.38;;;10.20;90.60;;;;;;5133439;27;20464;-78
2023/12/17 11:26:19;;;;;;;17.55;12.18;;;10.30;90.60;;;;;;5109672;27;20039;-78
2023/12/17 11:28:45;;;;;;;20.45;12.75;;;10.30;90.50;;;;;;5132884;27;20050;-79
2023/12/17 11:31:14;;;;;;;17.55;12.45;;;10.30;90.50;;;;;;5131204;27;20091;-79
2023/12/17 11:33:41;;;;;;;19.70;12.23;;;10.30;90.40;;;;;;5110752;27;20543;-79
2023/12/17 11:36:08;;;;;;;19.27;13.20;;;10.30;90.40;;;;;;5125022;27;20040;-79
2023/12/17 11:38:37;;;;;;;19.15;13.05;;;10.20;90.30;;;;;;5110651;27;20058;-79
2023/12/17 11:41:04;;;;;;;18.80;13.23;;;10.20;90.30;;;;;;5110230;27;20039;-78
2023/12/17 11:43:33;;;;;;;35.63;29.33;;;10.20;90.30;;;;;;5112706;27;20036;-78
2023/12/17 11:45:58;;;;;;;30.08;24.60;;;10.20;90.30;;;;;;5123991;27;20044;-78
2023/12/17 11:48:26;;;;;;;25.83;20.00;;;10.20;90.20;;;;;;5113922;27;20130;-78
2023/12/17 11:50:56;;;;;;;23.95;18.08;;;10.20;90.20;;;;;;5111021;28;20073;-78
2023/12/17 11:53:26;;;;;;;22.58;16.98;;;10.20;90.20;;;;;;5106484;27;20427;-78
2023/12/17 11:55:59;;;;;;;22.90;16.75;;;10.20;90.20;;;;;;5112188;27;20039;-82
2023/12/17 11:58:24;;;;;;;22.42;15.05;;;10.20;90.20;;;;;;5104601;27;20039;-82
2023/12/17 12:01:04;;;;;;;22.30;16.77;;;10.20;90.10;;;;;;5117895;27;20075;-82
2023/12/17 12:03:30;;;;;;;24.45;16.13;;;10.10;89.70;;;;;;5096705;27;20118;-82
2023/12/17 12:06:03;;;;;;;23.38;16.45;;;10.10;89.70;;;;;;5113626;28;20081;-82
2023/12/17 12:08:44;;;;;;;23.88;17.00;;;10.10;89.70;;;;;;5115387;27;20039;-82
2023/12/17 12:11:14;;;;;;;27.90;19.27;;;10.30;89.80;;;;;;5109999;27;20058;-83
2023/12/17 12:13:43;;;;;;;25.05;17.67;;;10.00;89.80;;;;;;5128624;27;20047;-82
2023/12/17 12:16:09;;;;;;;27.08;19.65;;;10.00;89.90;;;;;;5118902;27;20114;-82
2023/12/17 12:18:35;;;;;;;28.73;19.23;;;10.00;90.00;;;;;;5115069;27;20132;-82
2023/12/17 12:21:01;;;;;;;34.03;20.08;;;10.00;90.00;;;;;;5118361;27;20035;-82
2023/12/17 12:23:26;;;;;;;36.30;21.83;;;10.00;90.10;;;;;;5120249;27;20066;-82
2023/12/17 12:25:59;;;;;;;33.05;22.25;;;10.00;90.30;;;;;;5111939;27;20038;-82
2023/12/17 12:28:26;;;;;;;31.00;21.80;;;10.00;90.20;;;;;;5101147;27;20072;-82
2023/12/17 12:30:51;;;;;;;30.63;20.60;;;10.00;90.20;;;;;;5116207;27;20035;-85